createdAt,value
2018-11-12T00:00:44.127Z,100.00
2018-11-12T00:03:13.678Z,100.00
2018-11-12T00:05:43.274Z,100.00
2018-11-12T00:08:12.895Z,100.00
2018-11-12T00:10:42.514Z,100.00
2018-11-12T00:13:12.195Z,100.00
2018-11-12T00:15:41.919Z,100.00
2018-11-12T00:18:11.469Z,100.00
2018-11-12T00:20:41.079Z,100.00
2018-11-12T00:23:10.832Z,100.00
2018-11-12T00:25:40.374Z,100.00
2018-11-12T00:28:10.051Z,100.00
2018-11-12T00:30:39.639Z,100.00
2018-11-12T00:33:09.189Z,100.00
2018-11-12T00:35:38.767Z,100.00
2018-11-12T00:38:08.346Z,100.00
2018-11-12T00:40:37.971Z,100.00
2018-11-12T00:43:07.547Z,100.00
2018-11-12T00:45:37.111Z,100.00
2018-11-12T00:48:06.946Z,100.00
2018-11-12T00:50:36.622Z,100.00
2018-11-12T00:53:06.214Z,100.00
2018-11-12T00:55:35.763Z,100.00
2018-11-12T00:58:05.547Z,100.00
2018-11-12T01:00:35.140Z,100.00
2018-11-12T01:03:05.046Z,100.00
2018-11-12T01:05:34.634Z,100.00
2018-11-12T01:08:04.372Z,100.00
2018-11-12T01:10:33.943Z,100.00
2018-11-12T01:13:03.535Z,100.00
2018-11-12T01:15:33.194Z,100.00
2018-11-12T01:18:02.760Z,100.00
2018-11-12T01:20:32.322Z,100.00
2018-11-12T01:23:02.127Z,100.00
2018-11-12T01:25:31.723Z,100.00
2018-11-12T01:28:01.295Z,100.00
2018-11-12T01:30:31.250Z,100.00
2018-11-12T01:33:00.834Z,100.00
2018-11-12T01:35:30.415Z,100.00
2018-11-12T01:38:00.002Z,100.00
2018-11-12T01:40:29.556Z,100.00
2018-11-12T01:42:59.126Z,100.00
2018-11-12T01:45:28.714Z,100.00
2018-11-12T01:47:58.295Z,100.00
2018-11-12T01:50:27.850Z,100.00
2018-11-12T01:52:57.715Z,100.00
2018-11-12T01:55:27.298Z,100.00
2018-11-12T01:57:56.895Z,100.00
2018-11-12T02:00:26.579Z,100.00
2018-11-12T02:02:56.135Z,100.00
2018-11-12T02:05:25.714Z,100.00
2018-11-12T02:07:55.312Z,100.00
2018-11-12T02:10:24.870Z,100.00
2018-11-12T02:12:54.511Z,100.00
2018-11-12T02:15:24.088Z,100.00
2018-11-12T02:17:53.683Z,100.00
2018-11-12T02:20:23.279Z,100.00
2018-11-12T02:22:52.895Z,100.00
2018-11-12T02:25:22.447Z,100.00
2018-11-12T02:27:52.231Z,100.00
2018-11-12T02:30:27.224Z,100.00
2018-11-12T02:32:56.780Z,100.00
2018-11-12T02:35:26.330Z,100.00
2018-11-12T02:37:55.899Z,100.00
2018-11-12T02:40:25.498Z,100.00
2018-11-12T02:42:55.082Z,100.00
2018-11-12T02:45:24.683Z,100.00
2018-11-12T02:47:54.422Z,100.00
2018-11-12T02:50:23.975Z,100.00
2018-11-12T02:52:53.743Z,100.00
2018-11-12T02:55:23.361Z,100.00
2018-11-12T02:57:52.931Z,100.00
2018-11-12T03:00:23.502Z,100.00
2018-11-12T03:02:53.084Z,100.00
2018-11-12T03:05:22.656Z,100.00
2018-11-12T03:07:52.277Z,100.00
2018-11-12T03:10:23.193Z,100.00
2018-11-12T03:12:53.028Z,100.00
2018-11-12T03:15:23.014Z,100.00
2018-11-12T03:17:53.032Z,100.00
2018-11-12T03:20:23.603Z,100.00
2018-11-12T03:22:53.187Z,100.00
2018-11-12T03:25:23.247Z,100.00
2018-11-12T03:27:52.909Z,100.00
2018-11-12T03:30:23.325Z,100.00
2018-11-12T03:32:53.907Z,100.00
2018-11-12T03:35:23.592Z,100.00
2018-11-12T03:37:53.234Z,100.00
2018-11-12T03:40:24.306Z,100.00
2018-11-12T03:42:54.207Z,100.00
2018-11-12T03:45:25.094Z,100.00
2018-11-12T03:47:54.716Z,100.00
2018-11-12T03:50:25.631Z,100.00
2018-11-12T03:52:55.491Z,100.00
2018-11-12T03:55:25.163Z,100.00
2018-11-12T03:57:54.750Z,100.00
2018-11-12T04:00:31.119Z,100.00
2018-11-12T04:03:00.566Z,100.00
2018-11-12T04:05:30.161Z,100.00
2018-11-12T04:07:59.749Z,100.00
2018-11-12T04:10:29.391Z,100.00
2018-11-12T04:12:58.995Z,100.00
2018-11-12T04:15:28.650Z,100.00
2018-11-12T04:17:58.209Z,100.00
2018-11-12T04:20:27.795Z,100.00
2018-11-12T04:23:03.723Z,100.00
2018-11-12T04:25:35.366Z,100.00
2018-11-12T04:28:05.455Z,100.00
2018-11-12T04:30:35.179Z,100.00
2018-11-12T04:33:05.099Z,100.00
2018-11-12T04:35:34.734Z,100.00
2018-11-12T04:38:04.618Z,100.00
2018-11-12T04:40:34.223Z,100.00
2018-11-12T04:43:04.035Z,100.00
2018-11-12T04:45:33.642Z,100.00
2018-11-12T04:48:03.272Z,100.00
2018-11-12T04:50:32.899Z,100.00
2018-11-12T04:53:02.466Z,100.00
2018-11-12T04:55:32.068Z,100.00
2018-11-12T04:58:01.866Z,100.00
2018-11-12T05:00:31.479Z,100.00
2018-11-12T05:03:01.056Z,100.00
2018-11-12T05:05:30.903Z,100.00
2018-11-12T05:08:00.443Z,100.00
2018-11-12T05:10:30.033Z,100.00
2018-11-12T05:12:59.861Z,100.00
2018-11-12T05:15:29.411Z,100.00
2018-11-12T05:17:58.986Z,100.00
2018-11-12T05:20:29.719Z,100.00
2018-11-12T05:22:59.334Z,100.00
2018-11-12T05:25:29.006Z,100.00
2018-11-12T05:27:58.751Z,100.00
2018-11-12T05:30:29.376Z,100.00
2018-11-12T05:32:59.555Z,100.00
2018-11-12T05:35:30.009Z,100.00
2018-11-12T05:37:59.686Z,100.00
2018-11-12T05:40:30.318Z,100.00
2018-11-12T05:42:59.886Z,100.00
2018-11-12T05:45:29.894Z,100.00
2018-11-12T05:47:59.632Z,100.00
2018-11-12T05:50:31.349Z,100.00
2018-11-12T05:53:02.305Z,100.00
2018-11-12T05:55:32.495Z,100.00
2018-11-12T05:58:02.366Z,100.00
2018-11-12T06:00:36.407Z,100.00
2018-11-12T06:03:06.364Z,100.00
2018-11-12T06:05:36.190Z,100.00
2018-11-12T06:08:05.827Z,100.00
2018-11-12T06:10:35.988Z,100.00
2018-11-12T06:13:06.181Z,100.00
2018-11-12T06:15:35.771Z,100.00
2018-11-12T06:18:05.707Z,100.00
2018-11-12T06:20:35.595Z,100.00
2018-11-12T06:23:05.466Z,100.00
2018-11-12T06:25:36.378Z,100.00
2018-11-12T06:28:06.179Z,100.00
2018-11-12T06:30:36.966Z,100.00
2018-11-12T06:33:06.903Z,100.00
2018-11-12T06:35:36.548Z,100.00
2018-11-12T06:38:06.175Z,100.00
2018-11-12T06:40:35.793Z,100.00
2018-11-12T06:43:05.859Z,100.00
2018-11-12T06:45:35.509Z,100.00
2018-11-12T06:48:05.427Z,100.00
2018-11-12T06:50:35.106Z,100.00
2018-11-12T06:53:04.811Z,100.00
2018-11-12T06:55:34.458Z,100.00
2018-11-12T06:58:04.056Z,100.00
2018-11-12T07:00:34.933Z,100.00
2018-11-12T07:03:04.651Z,100.00
2018-11-12T07:05:34.399Z,100.00
2018-11-12T07:08:04.044Z,100.00
2018-11-12T07:10:33.699Z,100.00
2018-11-12T07:13:03.350Z,100.00
2018-11-12T07:15:32.970Z,98.95
2018-11-12T07:18:02.593Z,98.16
2018-11-12T07:20:32.167Z,95.78
2018-11-12T07:23:01.783Z,93.10
2018-11-12T07:25:31.897Z,90.74
2018-11-12T07:28:01.591Z,88.65
2018-11-12T07:30:31.202Z,86.94
2018-11-12T07:33:00.842Z,86.36
2018-11-12T07:35:30.455Z,86.26
2018-11-12T07:38:00.042Z,85.61
2018-11-12T07:40:29.636Z,85.58
2018-11-12T07:42:59.302Z,85.67
2018-11-12T07:45:29.599Z,86.70
2018-11-12T07:47:59.825Z,86.58
2018-11-12T07:50:30.643Z,86.24
2018-11-12T07:53:00.367Z,86.04
2018-11-12T07:55:30.330Z,85.40
2018-11-12T07:58:00.310Z,86.01
2018-11-12T08:00:34.273Z,86.32
2018-11-12T08:03:05.288Z,86.05
2018-11-12T08:05:35.423Z,87.00
2018-11-12T08:08:05.281Z,87.12
2018-11-12T08:10:34.891Z,86.95
2018-11-12T08:13:04.523Z,87.72
2018-11-12T08:15:34.159Z,87.80
2018-11-12T08:18:03.802Z,88.23
2018-11-12T08:20:33.605Z,88.13
2018-11-12T08:23:03.192Z,87.97
2018-11-12T08:25:32.863Z,88.38
2018-11-12T08:28:02.485Z,88.56
2018-11-12T08:30:32.197Z,89.28
2018-11-12T08:33:02.464Z,89.95
2018-11-12T08:35:32.264Z,89.44
2018-11-12T08:38:01.847Z,89.69
2018-11-12T08:40:31.712Z,89.77
2018-11-12T08:43:01.351Z,90.30
2018-11-12T08:45:30.946Z,90.10
2018-11-12T08:48:00.643Z,91.00
2018-11-12T08:50:30.267Z,90.96
2018-11-12T08:52:59.860Z,90.32
2018-11-12T08:55:30.755Z,90.72
2018-11-12T08:58:02.494Z,91.17
2018-11-12T09:00:32.210Z,90.89
2018-11-12T09:03:01.816Z,90.61
2018-11-12T09:05:31.922Z,90.18
2018-11-12T09:08:02.711Z,90.55
2018-11-12T09:10:34.043Z,90.63
2018-11-12T09:13:03.971Z,90.00
2018-11-12T09:15:33.715Z,89.50
2018-11-12T09:18:03.882Z,89.76
2018-11-12T09:20:33.501Z,89.53
2018-11-12T09:23:03.169Z,89.29
2018-11-12T09:25:32.926Z,88.77
2018-11-12T09:28:02.698Z,88.85
2018-11-12T09:30:32.304Z,88.75
2018-11-12T09:33:02.347Z,88.91
2018-11-12T09:35:33.064Z,88.44
2018-11-12T09:38:04.248Z,88.67
2018-11-12T09:40:38.111Z,88.82
2018-11-12T09:43:08.043Z,88.86
2018-11-12T09:45:37.735Z,87.90
2018-11-12T09:48:07.423Z,87.55
2018-11-12T09:50:37.056Z,87.61
2018-11-12T09:53:06.670Z,87.26
2018-11-12T09:55:36.368Z,86.71
2018-11-12T09:58:07.356Z,86.25
2018-11-12T10:00:37.717Z,86.09
2018-11-12T10:03:07.734Z,85.17
2018-11-12T10:05:39.527Z,85.02
2018-11-12T10:08:13.716Z,84.34
2018-11-12T10:10:54.197Z,83.56
2018-11-12T10:13:26.215Z,83.06
2018-11-12T10:15:55.975Z,82.09
2018-11-12T10:18:22.945Z,82.04
2018-11-12T10:20:52.547Z,81.29
2018-11-12T10:23:22.733Z,81.80
2018-11-12T10:25:52.811Z,80.94
2018-11-12T10:28:23.561Z,80.97
2018-11-12T10:30:53.233Z,82.29
2018-11-12T10:33:22.814Z,82.28
2018-11-12T10:35:52.470Z,82.26
2018-11-12T10:38:22.135Z,83.00
2018-11-12T10:40:51.758Z,82.82
2018-11-12T10:43:21.490Z,82.77
2018-11-12T10:45:51.083Z,82.72
2018-11-12T10:48:20.700Z,83.16
2018-11-12T10:50:56.374Z,82.47
2018-11-12T10:53:19.902Z,82.78
2018-11-12T10:55:49.721Z,82.46
2018-11-12T10:58:19.250Z,82.50
2018-11-12T11:00:54.026Z,82.79
2018-11-12T11:03:28.922Z,83.47
2018-11-12T11:05:59.020Z,83.69
2018-11-12T11:08:29.134Z,83.20
2018-11-12T11:10:58.771Z,83.59
2018-11-12T11:13:28.382Z,83.96
2018-11-12T11:15:58.219Z,83.59
2018-11-12T11:18:27.880Z,83.38
2018-11-12T11:20:57.535Z,83.92
2018-11-12T11:23:27.240Z,84.57
2018-11-12T11:25:56.831Z,85.09
2018-11-12T11:28:26.577Z,84.56
2018-11-12T11:30:56.458Z,85.08
2018-11-12T11:33:25.999Z,84.43
2018-11-12T11:35:55.619Z,84.16
2018-11-12T11:38:25.251Z,83.44
2018-11-12T11:40:54.898Z,83.53
2018-11-12T11:43:26.215Z,83.19
2018-11-12T11:45:55.783Z,82.74
2018-11-12T11:48:25.395Z,82.67
2018-11-12T11:50:55.222Z,81.90
2018-11-12T11:53:24.863Z,81.99
2018-11-12T11:55:54.480Z,81.64
2018-11-12T11:58:24.550Z,81.28
2018-11-12T12:00:54.125Z,80.93
2018-11-12T12:03:23.759Z,79.92
2018-11-12T12:05:53.386Z,79.92
2018-11-12T12:08:22.965Z,79.02
2018-11-12T12:10:52.542Z,79.14
2018-11-12T12:13:22.225Z,78.73
2018-11-12T12:15:51.778Z,77.47
2018-11-12T12:18:21.433Z,77.38
2018-11-12T12:20:51.047Z,76.92
2018-11-12T12:23:20.619Z,76.89
2018-11-12T12:25:50.421Z,76.83
2018-11-12T12:28:19.949Z,76.41
2018-11-12T12:30:49.578Z,75.93
2018-11-12T12:33:19.168Z,76.03
2018-11-12T12:35:49.037Z,76.19
2018-11-12T12:38:18.699Z,76.49
2018-11-12T12:40:48.354Z,75.75
2018-11-12T12:43:18.120Z,76.30
2018-11-12T12:45:47.910Z,75.93
2018-11-12T12:48:17.434Z,76.13
2018-11-12T12:50:47.234Z,75.64
2018-11-12T12:53:17.485Z,75.23
2018-11-12T12:55:47.428Z,75.65
2018-11-12T12:58:17.132Z,75.10
2018-11-12T13:00:47.553Z,75.72
2018-11-12T13:03:17.271Z,75.10
2018-11-12T13:05:46.935Z,75.24
2018-11-12T13:08:16.662Z,75.26
2018-11-12T13:10:46.308Z,75.67
2018-11-12T13:13:16.030Z,75.07
2018-11-12T13:15:45.756Z,74.94
2018-11-12T13:18:15.518Z,75.69
2018-11-12T13:20:45.174Z,76.00
2018-11-12T13:23:15.118Z,76.05
2018-11-12T13:25:44.781Z,75.87
2018-11-12T13:28:14.658Z,76.89
2018-11-12T13:30:44.299Z,76.96
2018-11-12T13:33:13.911Z,77.12
2018-11-12T13:35:43.667Z,77.98
2018-11-12T13:38:13.379Z,78.11
2018-11-12T13:40:43.000Z,77.65
2018-11-12T13:43:12.799Z,78.36
2018-11-12T13:45:43.444Z,78.68
2018-11-12T13:48:13.278Z,78.12
2018-11-12T13:50:42.950Z,78.52
2018-11-12T13:53:12.749Z,78.88
2018-11-12T13:55:42.578Z,78.51
2018-11-12T13:58:12.208Z,78.79
2018-11-12T14:00:42.156Z,78.77
2018-11-12T14:03:12.030Z,78.98
2018-11-12T14:05:41.663Z,79.14
2018-11-12T14:08:11.300Z,79.58
2018-11-12T14:10:40.917Z,79.35
2018-11-12T14:13:10.543Z,78.96
2018-11-12T14:15:40.259Z,79.79
2018-11-12T14:18:10.186Z,79.50
2018-11-12T14:20:40.032Z,79.83
2018-11-12T14:23:09.535Z,79.71
2018-11-12T14:25:39.425Z,79.51
2018-11-12T14:28:09.146Z,79.95
2018-11-12T14:30:38.718Z,80.14
2018-11-12T14:33:08.381Z,79.88
2018-11-12T14:35:38.080Z,80.10
2018-11-12T14:38:07.642Z,80.59
2018-11-12T14:40:37.295Z,79.88
2018-11-12T14:43:07.007Z,80.30
2018-11-12T14:45:36.732Z,80.67
2018-11-12T14:48:06.560Z,80.02
2018-11-12T14:50:36.149Z,80.29
2018-11-12T14:53:06.035Z,80.45
2018-11-12T14:55:35.655Z,80.75
2018-11-12T14:58:05.310Z,80.74
2018-11-12T15:00:34.951Z,80.54
2018-11-12T15:03:04.763Z,81.08
2018-11-12T15:05:34.407Z,81.40
2018-11-12T15:08:04.014Z,81.59
2018-11-12T15:10:33.736Z,81.82
2018-11-12T15:13:03.341Z,81.71
2018-11-12T15:15:32.974Z,82.14
2018-11-12T15:18:02.645Z,82.04
2018-11-12T15:20:32.245Z,82.53
2018-11-12T15:23:01.866Z,83.23
2018-11-12T15:25:38.287Z,83.51
2018-11-12T15:28:07.990Z,83.46
2018-11-12T15:30:37.645Z,83.94
2018-11-12T15:33:07.577Z,84.37
2018-11-12T15:35:37.231Z,83.70
2018-11-12T15:38:07.359Z,84.04
2018-11-12T15:40:36.967Z,84.74
2018-11-12T15:43:06.675Z,84.42
2018-11-12T15:45:36.257Z,85.14
2018-11-12T15:48:06.100Z,84.49
2018-11-12T15:50:37.256Z,84.40
2018-11-12T15:53:37.803Z,84.80
2018-11-12T15:56:07.387Z,84.59
2018-11-12T15:58:37.027Z,84.21
2018-11-12T16:01:07.220Z,84.15
2018-11-12T16:03:36.859Z,84.80
2018-11-12T16:06:07.288Z,84.79
2018-11-12T16:08:36.893Z,85.24
2018-11-12T16:11:06.715Z,84.74
2018-11-12T16:13:36.377Z,85.22
2018-11-12T16:16:06.195Z,85.21
2018-11-12T16:18:35.890Z,85.21
2018-11-12T16:21:05.606Z,85.24
2018-11-12T16:23:35.275Z,85.67
2018-11-12T16:26:04.919Z,85.56
2018-11-12T16:28:34.695Z,85.73
2018-11-12T16:31:04.408Z,85.97
2018-11-12T16:33:34.063Z,86.10
2018-11-12T16:36:03.730Z,85.96
2018-11-12T16:38:33.380Z,86.13
2018-11-12T16:41:02.977Z,86.09
2018-11-12T16:43:32.679Z,86.51
2018-11-12T16:46:08.998Z,86.55
2018-11-12T16:48:38.814Z,86.22
2018-11-12T16:51:08.531Z,86.04
2018-11-12T16:53:38.455Z,86.09
2018-11-12T16:56:08.104Z,85.90
2018-11-12T16:58:37.955Z,85.73
2018-11-12T17:01:07.844Z,85.53
2018-11-12T17:03:37.424Z,85.26
2018-11-12T17:06:07.102Z,85.26
2018-11-12T17:08:36.862Z,84.42
2018-11-12T17:11:06.668Z,83.98
2018-11-12T17:13:36.397Z,84.53
2018-11-12T17:16:06.502Z,83.98
2018-11-12T17:18:36.621Z,84.31
2018-11-12T17:21:06.433Z,84.09
2018-11-12T17:23:36.059Z,84.11
2018-11-12T17:26:05.959Z,84.07
2018-11-12T17:28:35.814Z,83.53
2018-11-12T17:31:05.788Z,84.01
2018-11-12T17:33:35.931Z,83.76
2018-11-12T17:36:06.162Z,83.23
2018-11-12T17:38:35.879Z,82.88
2018-11-12T17:41:06.193Z,83.71
2018-11-12T17:43:35.907Z,83.04
2018-11-12T17:46:05.731Z,83.31
2018-11-12T17:48:35.435Z,83.07
2018-11-12T17:51:06.972Z,82.67
2018-11-12T17:53:36.625Z,83.34
2018-11-12T17:56:06.643Z,83.44
2018-11-12T17:58:36.358Z,83.28
2018-11-12T18:01:06.447Z,83.69
2018-11-12T18:03:36.123Z,83.27
2018-11-12T18:06:06.995Z,83.45
2018-11-12T18:08:36.631Z,83.17
2018-11-12T18:11:06.567Z,83.63
2018-11-12T18:13:36.515Z,83.38
2018-11-12T18:16:06.934Z,83.23
2018-11-12T18:18:36.709Z,82.79
2018-11-12T18:21:06.787Z,83.42
2018-11-12T18:23:37.381Z,82.71
2018-11-12T18:26:07.504Z,83.07
2018-11-12T18:28:37.172Z,83.25
2018-11-12T18:31:07.323Z,83.32
2018-11-12T18:33:36.933Z,83.25
2018-11-12T18:36:06.825Z,82.98
2018-11-12T18:38:36.514Z,83.60
2018-11-12T18:41:06.493Z,82.96
2018-11-12T18:43:36.149Z,82.83
2018-11-12T18:46:05.731Z,83.30
2018-11-12T18:48:35.331Z,83.39
2018-11-12T18:51:04.951Z,83.21
2018-11-12T18:53:34.559Z,83.05
2018-11-12T18:56:04.436Z,83.33
2018-11-12T18:58:34.120Z,83.44
2018-11-12T19:01:03.703Z,83.51
2018-11-12T19:03:33.332Z,83.85
2018-11-12T19:06:02.923Z,83.66
2018-11-12T19:08:32.523Z,83.64
2018-11-12T19:11:02.411Z,83.75
2018-11-12T19:13:31.991Z,83.94
2018-11-12T19:16:01.566Z,83.45
2018-11-12T19:18:31.197Z,84.04
2018-11-12T19:21:00.786Z,84.03
2018-11-12T19:23:30.427Z,84.01
2018-11-12T19:26:00.222Z,84.40
2018-11-12T19:28:29.877Z,84.21
2018-11-12T19:30:59.542Z,83.99
2018-11-12T19:33:29.162Z,84.66
2018-11-12T19:35:58.831Z,84.62
2018-11-12T19:38:28.437Z,84.68
2018-11-12T19:40:58.320Z,84.70
2018-11-12T19:43:27.958Z,84.65
2018-11-12T19:45:57.563Z,84.42
2018-11-12T19:48:27.243Z,84.16
2018-11-12T19:50:56.916Z,84.64
2018-11-12T19:53:27.095Z,83.86
2018-11-12T19:55:56.895Z,84.29
2018-11-12T19:58:26.549Z,84.38
2018-11-12T20:00:56.250Z,84.28
2018-11-12T20:03:25.951Z,84.96
2018-11-12T20:05:55.843Z,84.36
2018-11-12T20:08:25.510Z,84.77
2018-11-12T20:10:55.315Z,85.03
2018-11-12T20:13:25.007Z,84.74
2018-11-12T20:15:54.607Z,84.95
2018-11-12T20:18:24.349Z,85.15
2018-11-12T20:20:53.939Z,84.96
2018-11-12T20:23:23.707Z,84.73
2018-11-12T20:25:53.331Z,84.77
2018-11-12T20:28:22.962Z,85.16
2018-11-12T20:30:52.615Z,85.19
2018-11-12T20:33:22.233Z,84.81
2018-11-12T20:35:51.850Z,85.04
2018-11-12T20:38:21.544Z,84.60
2018-11-12T20:40:51.307Z,84.85
2018-11-12T20:43:21.036Z,85.15
2018-11-12T20:45:50.730Z,84.93
2018-11-12T20:48:20.440Z,84.84
2018-11-12T20:50:50.139Z,85.03
2018-11-12T20:53:19.758Z,85.00
2018-11-12T20:55:49.538Z,84.75
2018-11-12T20:58:19.128Z,84.91
2018-11-12T21:00:48.828Z,84.41
2018-11-12T21:03:18.503Z,85.12
2018-11-12T21:05:48.138Z,85.03
2018-11-12T21:08:17.796Z,84.82
2018-11-12T21:10:47.465Z,85.23
2018-11-12T21:13:17.035Z,84.93
2018-11-12T21:15:46.663Z,84.81
2018-11-12T21:18:16.250Z,84.22
2018-11-12T21:20:45.837Z,84.36
2018-11-12T21:23:15.484Z,83.87
2018-11-12T21:25:45.291Z,83.79
2018-11-12T21:28:14.906Z,83.23
2018-11-12T21:30:44.558Z,83.34
2018-11-12T21:33:14.492Z,82.63
2018-11-12T21:35:44.090Z,82.68
2018-11-12T21:38:13.875Z,82.75
2018-11-12T21:40:43.727Z,82.21
2018-11-12T21:43:13.442Z,82.53
2018-11-12T21:45:42.977Z,82.54
2018-11-12T21:48:12.622Z,82.03
2018-11-12T21:50:42.233Z,81.81
2018-11-12T21:53:11.855Z,81.69
2018-11-12T21:55:41.712Z,81.92
2018-11-12T21:58:11.324Z,81.81
2018-11-12T22:00:40.961Z,81.76
2018-11-12T22:03:10.716Z,81.60
2018-11-12T22:05:40.340Z,81.94
2018-11-12T22:08:09.983Z,81.68
2018-11-12T22:10:39.770Z,81.36
2018-11-12T22:13:09.483Z,81.53
2018-11-12T22:15:39.118Z,81.62
2018-11-12T22:18:08.882Z,80.81
2018-11-12T22:20:38.492Z,80.50
2018-11-12T22:23:08.110Z,80.42
2018-11-12T22:25:37.848Z,81.20
2018-11-12T22:28:07.611Z,80.50
2018-11-12T22:30:37.115Z,80.49
2018-11-12T22:33:06.925Z,80.54
2018-11-12T22:35:36.598Z,80.53
2018-11-12T22:38:06.554Z,80.02
2018-11-12T22:40:36.798Z,80.00
2018-11-12T22:43:06.551Z,80.36
2018-11-12T22:45:36.189Z,80.32
2018-11-12T22:48:06.651Z,80.39
2018-11-12T22:50:36.307Z,79.85
2018-11-12T22:53:06.256Z,80.59
2018-11-12T22:55:35.822Z,80.50
2018-11-12T22:58:05.566Z,80.61
2018-11-12T23:00:38.451Z,80.37
2018-11-12T23:03:08.936Z,80.49
2018-11-12T23:05:38.635Z,80.79
2018-11-12T23:08:08.532Z,81.25
2018-11-12T23:10:38.186Z,80.91
2018-11-12T23:13:08.061Z,81.70
2018-11-12T23:15:37.995Z,82.04
2018-11-12T23:18:07.682Z,82.12
2018-11-12T23:20:37.334Z,82.21
2018-11-12T23:23:07.120Z,82.25
2018-11-12T23:25:36.723Z,82.70
2018-11-12T23:28:06.437Z,82.83
2018-11-12T23:30:36.070Z,82.78
2018-11-12T23:33:06.036Z,82.75
2018-11-12T23:35:35.635Z,83.05
2018-11-12T23:38:05.471Z,83.13
2018-11-12T23:40:35.047Z,83.12
2018-11-12T23:43:05.016Z,83.62
2018-11-12T23:45:34.790Z,83.61
2018-11-12T23:48:04.427Z,83.56
2018-11-12T23:50:34.041Z,83.73
2018-11-12T23:53:03.827Z,83.37
2018-11-12T23:55:33.415Z,83.49
2018-11-12T23:58:03.010Z,84.08
